Time;durP1;ratioP1;P1;durP2;ratioP2;P2;SDS_P1;SDS_P2;PMS_P1;PMS_P2;Temp;Humidity;BMP_temperature;BMP_pressure;BME280_temperature;BME280_humidity;BME280_pressure;Samples;Min_cycle;Max_cycle;Signal;HPM_P1;HPM_P2
2021/09/06 00:00:07;;;;;;;9.82;7.80;;;;;;;;;;5123667;28;20173;-82
2021/09/06 00:02:33;;;;;;;8.50;7.63;;;;;;;;;;5096336;28;20188;-81
2021/09/06 00:04:59;;;;;;;7.90;7.10;;;;;;;;;;5112329;28;20181;-82
2021/09/06 00:07:26;;;;;;;7.05;6.35;;;;;;;;;;5097310;28;20187;-82
2021/09/06 00:09:59;;;;;;;7.75;7.05;;;;;;;;;;5091343;28;20569;-81
2021/09/06 00:12:25;;;;;;;7.85;7.03;;;;;;;;;;5092458;28;20204;-81
2021/09/06 00:14:51;;;;;;;8.53;6.73;;;;;;;;;;5104031;28;20182;-82
2021/09/06 00:17:17;;;;;;;7.78;7.07;;;;;;;;;;5115672;28;20423;-82
2021/09/06 00:19:43;;;;;;;7.87;6.97;;;;;;;;;;5112573;28;20185;-82
2021/09/06 00:22:09;;;;;;;9.70;8.07;;;;;;;;;;5106839;28;20934;-82
2021/09/06 00:24:35;;;;;;;7.50;6.80;;;;;;;;;;5090975;28;20453;-82
2021/09/06 00:27:01;;;;;;;7.65;6.93;;;;;;;;;;5103631;28;20394;-82
2021/09/06 00:29:27;;;;;;;11.23;6.88;;;;;;;;;;5093815;28;20279;-81
2021/09/06 00:31:53;;;;;;;7.33;6.70;;;;;;;;;;5094595;28;20247;-82
2021/09/06 00:34:19;;;;;;;7.05;6.45;;;;;;;;;;5095646;28;20434;-82
2021/09/06 00:36:45;;;;;;;7.13;6.43;;;;;;;;;;5107809;28;20221;-82
2021/09/06 00:39:11;;;;;;;8.13;7.43;;;;;;;;;;5112640;28;20897;-82
2021/09/06 00:41:37;;;;;;;6.90;6.10;;;;;;;;;;5096349;28;20437;-82
2021/09/06 00:44:03;;;;;;;8.07;7.27;;;;;;;;;;5096049;28;20433;-82
2021/09/06 00:46:29;;;;;;;7.85;7.15;;;;;;;;;;5112217;28;20476;-82
2021/09/06 00:48:55;;;;;;;8.70;7.47;;;;;;;;;;5090000;28;20256;-82
2021/09/06 00:51:21;;;;;;;8.70;7.47;;;;;;;;;;5091609;28;20196;-82
2021/09/06 00:53:47;;;;;;;8.35;7.45;;;;;;;;;;5102029;28;20431;-81
2021/09/06 00:56:14;;;;;;;8.80;8.10;;;;;;;;;;5094605;28;20611;-81
2021/09/06 00:58:39;;;;;;;8.52;7.25;;;;;;;;;;5094243;28;20179;-82
2021/09/06 01:01:06;;;;;;;8.07;7.37;;;;;;;;;;5093223;28;20541;-82
2021/09/06 01:03:31;;;;;;;14.05;7.50;;;;;;;;;;5090639;28;20422;-83
2021/09/06 01:05:58;;;;;;;9.30;8.33;;;;;;;;;;5092723;28;20247;-82
2021/09/06 01:08:24;;;;;;;7.93;7.10;;;;;;;;;;5098758;28;20453;-82
2021/09/06 01:10:50;;;;;;;9.50;7.30;;;;;;;;;;5118684;28;20194;-82
2021/09/06 01:13:16;;;;;;;7.88;7.20;;;;;;;;;;5108358;28;20180;-82
2021/09/06 01:15:42;;;;;;;7.80;7.10;;;;;;;;;;5089170;28;20611;-81
2021/09/06 01:18:08;;;;;;;8.63;7.30;;;;;;;;;;5103823;28;20476;-82
2021/09/06 01:20:34;;;;;;;7.43;6.82;;;;;;;;;;5094345;28;20419;-82
2021/09/06 01:23:00;;;;;;;8.30;7.38;;;;;;;;;;5101291;28;20270;-82
2021/09/06 01:25:26;;;;;;;7.80;7.10;;;;;;;;;;5104058;28;20197;-82
2021/09/06 01:27:52;;;;;;;7.40;6.80;;;;;;;;;;5105828;28;20203;-82
2021/09/06 01:30:18;;;;;;;13.50;7.20;;;;;;;;;;5108824;28;20512;-82
2021/09/06 01:32:44;;;;;;;8.70;7.80;;;;;;;;;;5090293;28;20262;-83
2021/09/06 01:35:10;;;;;;;7.80;7.10;;;;;;;;;;5107345;28;20433;-82
2021/09/06 01:37:37;;;;;;;8.68;7.43;;;;;;;;;;5093500;28;20215;-83
2021/09/06 01:40:03;;;;;;;7.53;6.80;;;;;;;;;;5104891;28;20195;-82
2021/09/06 01:42:29;;;;;;;10.07;8.90;;;;;;;;;;5108796;28;20199;-83
2021/09/06 01:44:55;;;;;;;7.03;6.43;;;;;;;;;;5100889;28;20212;-82
2021/09/06 01:47:21;;;;;;;8.13;7.32;;;;;;;;;;5095645;28;20198;-83
2021/09/06 01:49:47;;;;;;;8.98;7.75;;;;;;;;;;5110266;28;20189;-82
2021/09/06 01:52:13;;;;;;;6.77;6.17;;;;;;;;;;5104465;28;20199;-83
2021/09/06 01:54:39;;;;;;;8.07;7.28;;;;;;;;;;5088373;28;20434;-82
2021/09/06 01:57:05;;;;;;;8.40;7.70;;;;;;;;;;5102541;28;20167;-82
2021/09/06 01:59:31;;;;;;;9.20;6.53;;;;;;;;;;5103721;28;20254;-82
2021/09/06 02:01:57;;;;;;;7.80;7.10;;;;;;;;;;5096475;28;20214;-83
2021/09/06 02:04:23;;;;;;;8.35;6.90;;;;;;;;;;5089200;28;20448;-83
2021/09/06 02:06:49;;;;;;;7.93;6.97;;;;;;;;;;5104245;28;20183;-82
2021/09/06 02:09:15;;;;;;;8.38;7.57;;;;;;;;;;5107857;28;20174;-83
2021/09/06 02:11:41;;;;;;;8.47;7.67;;;;;;;;;;5090631;28;20210;-83
2021/09/06 02:14:07;;;;;;;7.90;7.05;;;;;;;;;;5112828;28;20502;-81
2021/09/06 02:16:33;;;;;;;8.13;7.00;;;;;;;;;;5119773;28;20256;-83
2021/09/06 02:18:59;;;;;;;7.50;6.70;;;;;;;;;;5090677;28;20638;-82
2021/09/06 02:21:25;;;;;;;8.77;8.02;;;;;;;;;;5087039;28;20186;-83
2021/09/06 02:23:51;;;;;;;13.30;7.57;;;;;;;;;;5092138;28;20659;-83
2021/09/06 02:26:17;;;;;;;7.15;6.57;;;;;;;;;;5111380;28;20445;-82
2021/09/06 02:28:44;;;;;;;9.73;7.30;;;;;;;;;;5109477;28;20186;-82
2021/09/06 02:31:10;;;;;;;10.98;8.40;;;;;;;;;;5103575;28;20461;-82
2021/09/06 02:33:38;;;;;;;8.13;7.32;;;;;;;;;;5106251;28;20172;-82
2021/09/06 02:36:04;;;;;;;8.20;7.35;;;;;;;;;;5101036;28;20179;-82
2021/09/06 02:38:30;;;;;;;7.95;7.13;;;;;;;;;;5094011;28;20176;-83
2021/09/06 02:40:56;;;;;;;7.43;6.73;;;;;;;;;;5099872;28;20183;-82
2021/09/06 02:43:22;;;;;;;8.07;7.30;;;;;;;;;;5102372;28;20407;-82
2021/09/06 02:45:48;;;;;;;8.20;7.40;;;;;;;;;;5104878;28;20535;-82
2021/09/06 02:48:14;;;;;;;8.00;7.20;;;;;;;;;;5102716;28;20646;-83
2021/09/06 02:50:40;;;;;;;9.53;7.50;;;;;;;;;;5110620;28;20501;-83
2021/09/06 02:53:06;;;;;;;8.73;6.88;;;;;;;;;;5108961;27;20563;-82
2021/09/06 02:55:32;;;;;;;8.43;7.72;;;;;;;;;;5107906;28;20180;-83
2021/09/06 02:57:58;;;;;;;8.00;7.20;;;;;;;;;;5102592;28;20180;-83
2021/09/06 03:00:25;;;;;;;8.68;7.60;;;;;;;;;;5088155;28;20453;-82
2021/09/06 03:02:51;;;;;;;9.40;8.00;;;;;;;;;;5091537;28;20172;-83
2021/09/06 03:05:18;;;;;;;9.60;7.47;;;;;;;;;;5093611;28;20278;-82
2021/09/06 03:07:44;;;;;;;9.13;7.90;;;;;;;;;;5092261;28;20238;-83
2021/09/06 03:10:10;;;;;;;8.83;7.97;;;;;;;;;;5103380;28;20204;-83
2021/09/06 03:12:36;;;;;;;8.73;7.82;;;;;;;;;;5105593;28;20450;-82
2021/09/06 03:15:02;;;;;;;8.75;7.80;;;;;;;;;;5100606;28;20175;-82
2021/09/06 03:17:28;;;;;;;9.90;7.80;;;;;;;;;;5092860;28;20194;-82
2021/09/06 03:19:54;;;;;;;10.27;7.97;;;;;;;;;;5094272;28;20175;-83
2021/09/06 03:22:20;;;;;;;13.10;8.00;;;;;;;;;;5102754;28;20429;-83
2021/09/06 03:24:46;;;;;;;8.40;7.60;;;;;;;;;;5104872;28;20465;-83
2021/09/06 03:27:13;;;;;;;8.68;7.88;;;;;;;;;;5101262;28;20201;-83
2021/09/06 03:29:39;;;;;;;7.90;7.18;;;;;;;;;;5117836;28;20232;-82
2021/09/06 03:32:06;;;;;;;8.65;7.75;;;;;;;;;;5101935;28;20223;-82
2021/09/06 03:34:33;;;;;;;8.27;7.43;;;;;;;;;;5101388;28;20234;-83
2021/09/06 03:36:59;;;;;;;10.98;7.80;;;;;;;;;;5121750;28;20179;-83
2021/09/06 03:39:25;;;;;;;8.60;7.70;;;;;;;;;;5088696;28;20210;-82
2021/09/06 03:41:51;;;;;;;14.80;8.30;;;;;;;;;;5100281;28;20909;-82
2021/09/06 03:44:18;;;;;;;9.60;8.70;;;;;;;;;;5095314;28;20437;-83
2021/09/06 03:46:44;;;;;;;8.73;7.93;;;;;;;;;;5092794;28;20873;-83
2021/09/06 03:49:10;;;;;;;8.80;7.93;;;;;;;;;;5088939;28;20205;-82
2021/09/06 03:51:36;;;;;;;9.27;8.37;;;;;;;;;;5086142;28;20484;-82
2021/09/06 03:54:02;;;;;;;8.53;7.83;;;;;;;;;;5102184;28;20417;-83
2021/09/06 03:56:29;;;;;;;9.07;8.18;;;;;;;;;;5115933;28;20399;-82
2021/09/06 03:58:55;;;;;;;8.27;7.43;;;;;;;;;;5116125;28;20199;-83
2021/09/06 04:01:21;;;;;;;9.97;7.93;;;;;;;;;;5088314;28;20209;-82
2021/09/06 04:03:47;;;;;;;10.30;8.20;;;;;;;;;;5120664;28;20432;-83
2021/09/06 04:06:13;;;;;;;8.30;7.50;;;;;;;;;;5101252;28;20166;-83
2021/09/06 04:08:39;;;;;;;9.20;8.30;;;;;;;;;;5109769;28;20434;-82
2021/09/06 04:11:05;;;;;;;10.83;8.47;;;;;;;;;;5092706;28;20868;-82
2021/09/06 04:13:31;;;;;;;10.53;8.43;;;;;;;;;;5108518;28;20439;-83
2021/09/06 04:15:57;;;;;;;9.38;8.43;;;;;;;;;;5104318;28;20433;-83
2021/09/06 04:18:25;;;;;;;9.60;8.60;;;;;;;;;;5106574;28;20202;-82
2021/09/06 04:20:51;;;;;;;10.20;7.90;;;;;;;;;;5119462;28;20415;-82
2021/09/06 04:23:17;;;;;;;9.20;8.20;;;;;;;;;;5094312;28;20184;-83
2021/09/06 04:25:43;;;;;;;10.00;8.77;;;;;;;;;;5090476;28;20179;-83
2021/09/06 04:28:09;;;;;;;10.50;8.30;;;;;;;;;;5120312;28;20191;-81
2021/09/06 04:30:35;;;;;;;8.50;7.70;;;;;;;;;;5104519;28;20472;-83
2021/09/06 04:33:01;;;;;;;9.32;8.52;;;;;;;;;;5101184;28;20463;-83
2021/09/06 04:35:27;;;;;;;8.60;7.88;;;;;;;;;;5119226;28;20179;-82
2021/09/06 04:37:53;;;;;;;10.60;9.00;;;;;;;;;;5101710;28;20185;-83
2021/09/06 04:40:19;;;;;;;9.93;8.93;;;;;;;;;;5096243;28;20269;-83
2021/09/06 04:42:45;;;;;;;10.73;8.37;;;;;;;;;;5089350;28;20407;-83
2021/09/06 04:45:11;;;;;;;9.27;8.03;;;;;;;;;;5104589;28;20423;-82
2021/09/06 04:47:37;;;;;;;9.50;8.70;;;;;;;;;;5090854;28;20441;-82
2021/09/06 04:50:03;;;;;;;9.47;8.53;;;;;;;;;;5094935;28;20183;-82
2021/09/06 04:52:29;;;;;;;10.18;8.50;;;;;;;;;;5111967;28;20487;-83
2021/09/06 04:54:55;;;;;;;10.23;8.35;;;;;;;;;;5090023;28;20263;-83
2021/09/06 04:57:22;;;;;;;9.43;8.53;;;;;;;;;;5091253;28;20167;-82
2021/09/06 04:59:48;;;;;;;8.27;7.50;;;;;;;;;;5102104;28;20391;-82
2021/09/06 05:02:14;;;;;;;9.70;8.50;;;;;;;;;;5120902;28;20187;-84
2021/09/06 05:04:40;;;;;;;9.30;8.40;;;;;;;;;;5099837;28;20937;-82
2021/09/06 05:07:06;;;;;;;10.73;8.00;;;;;;;;;;5093273;28;20501;-83
2021/09/06 05:09:32;;;;;;;9.10;8.17;;;;;;;;;;5091190;28;20421;-82
2021/09/06 05:11:58;;;;;;;10.38;8.27;;;;;;;;;;5093034;28;20472;-83
2021/09/06 05:14:24;;;;;;;8.90;8.00;;;;;;;;;;5093466;28;20202;-83
2021/09/06 05:16:50;;;;;;;8.68;7.85;;;;;;;;;;5110473;28;20440;-82
2021/09/06 05:19:16;;;;;;;9.30;8.37;;;;;;;;;;5103439;28;20179;-82
2021/09/06 05:21:42;;;;;;;9.47;8.57;;;;;;;;;;5124163;28;20410;-83
2021/09/06 05:24:08;;;;;;;9.05;8.20;;;;;;;;;;5122762;28;20504;-82
2021/09/06 05:26:34;;;;;;;8.73;7.83;;;;;;;;;;5094393;28;20215;-83
2021/09/06 05:29:00;;;;;;;9.50;7.97;;;;;;;;;;5095795;28;20401;-83
2021/09/06 05:31:26;;;;;;;8.55;7.80;;;;;;;;;;5108765;28;20242;-83
2021/09/06 05:33:52;;;;;;;8.48;7.68;;;;;;;;;;5124186;28;20176;-82
2021/09/06 05:36:18;;;;;;;12.30;8.27;;;;;;;;;;5122216;28;20178;-81
2021/09/06 05:38:44;;;;;;;14.13;8.48;;;;;;;;;;5090397;28;20418;-83
2021/09/06 05:41:10;;;;;;;11.55;9.00;;;;;;;;;;5096297;28;20203;-83
2021/09/06 05:43:36;;;;;;;8.75;7.63;;;;;;;;;;5097364;28;20179;-82
2021/09/06 05:46:03;;;;;;;8.90;7.82;;;;;;;;;;5119925;28;20176;-83
2021/09/06 05:48:29;;;;;;;9.43;8.32;;;;;;;;;;5104070;28;20197;-82
2021/09/06 05:50:55;;;;;;;11.40;8.10;;;;;;;;;;5103132;28;20179;-83
2021/09/06 05:53:21;;;;;;;9.15;8.25;;;;;;;;;;5119759;28;20175;-83
2021/09/06 05:55:47;;;;;;;11.87;8.37;;;;;;;;;;5100458;28;20184;-83
2021/09/06 05:58:13;;;;;;;8.68;7.78;;;;;;;;;;5091154;28;20450;-82
2021/09/06 06:00:39;;;;;;;9.93;8.93;;;;;;;;;;5122291;28;20614;-82
2021/09/06 06:03:05;;;;;;;10.83;8.03;;;;;;;;;;5103066;28;20721;-82
2021/09/06 06:05:31;;;;;;;10.80;9.00;;;;;;;;;;5121837;28;20440;-82
2021/09/06 06:07:57;;;;;;;9.17;8.30;;;;;;;;;;5116117;28;20828;-83
2021/09/06 06:10:23;;;;;;;9.57;8.77;;;;;;;;;;5108196;28;20434;-82
2021/09/06 06:12:49;;;;;;;12.33;7.93;;;;;;;;;;5121570;28;20781;-82
2021/09/06 06:15:15;;;;;;;10.25;9.25;;;;;;;;;;5125968;28;20424;-83
2021/09/06 06:17:43;;;;;;;10.33;9.20;;;;;;;;;;5109871;28;20195;-83
2021/09/06 06:20:09;;;;;;;9.38;8.38;;;;;;;;;;5109552;28;20403;-83
2021/09/06 06:22:35;;;;;;;10.68;8.40;;;;;;;;;;5110145;28;20197;-82
2021/09/06 06:25:01;;;;;;;9.77;7.77;;;;;;;;;;5090701;28;20211;-83
2021/09/06 06:27:27;;;;;;;11.98;9.40;;;;;;;;;;5105287;28;20405;-82
2021/09/06 06:29:53;;;;;;;9.93;8.57;;;;;;;;;;5118904;28;20182;-83
2021/09/06 06:32:19;;;;;;;10.80;8.88;;;;;;;;;;5091418;28;20473;-82
2021/09/06 06:34:45;;;;;;;8.60;7.80;;;;;;;;;;5091375;28;20183;-83
2021/09/06 06:37:11;;;;;;;10.03;8.40;;;;;;;;;;5089605;28;20437;-83
2021/09/06 06:39:38;;;;;;;9.57;8.67;;;;;;;;;;5104081;28;20421;-83
2021/09/06 06:42:04;;;;;;;14.70;13.02;;;;;;;;;;5109604;28;20410;-83
2021/09/06 06:44:30;;;;;;;10.17;9.17;;;;;;;;;;5089370;28;20244;-83
2021/09/06 06:46:56;;;;;;;10.30;8.98;;;;;;;;;;5091075;28;20438;-82
2021/09/06 06:49:22;;;;;;;10.10;9.20;;;;;;;;;;5109148;28;20213;-82
2021/09/06 06:51:48;;;;;;;10.23;9.32;;;;;;;;;;5087196;28;20210;-82
2021/09/06 06:54:14;;;;;;;12.27;9.00;;;;;;;;;;5101857;28;20180;-83
2021/09/06 06:56:40;;;;;;;14.13;12.20;;;;;;;;;;5091676;28;20250;-83
2021/09/06 06:59:06;;;;;;;17.17;10.40;;;;;;;;;;5093679;28;20459;-83
2021/09/06 07:01:32;;;;;;;14.80;13.13;;;;;;;;;;5109197;28;20430;-83
2021/09/06 07:03:58;;;;;;;10.50;9.40;;;;;;;;;;5088154;28;20813;-82
2021/09/06 07:06:25;;;;;;;12.00;10.27;;;;;;;;;;5107307;28;20935;-82
2021/09/06 07:08:51;;;;;;;12.20;9.48;;;;;;;;;;5109657;28;20639;-83
2021/09/06 07:11:17;;;;;;;14.88;10.48;;;;;;;;;;5088908;28;20230;-83
2021/09/06 07:13:43;;;;;;;16.40;10.60;;;;;;;;;;5091326;28;20180;-83
2021/09/06 07:16:09;;;;;;;15.20;10.75;;;;;;;;;;5091964;28;20424;-82
2021/09/06 07:18:35;;;;;;;27.83;15.93;;;;;;;;;;5087769;28;20198;-82
2021/09/06 07:21:01;;;;;;;15.95;12.00;;;;;;;;;;5109121;28;20410;-82
2021/09/06 07:23:27;;;;;;;13.57;10.90;;;;;;;;;;5093548;28;20180;-82
2021/09/06 07:25:53;;;;;;;31.25;12.50;;;;;;;;;;5094462;28;20857;-82
2021/09/06 07:28:19;;;;;;;18.70;13.63;;;;;;;;;;5089339;28;20202;-82
2021/09/06 07:30:45;;;;;;;15.75;10.45;;;;;;;;;;5086041;28;20691;-82
2021/09/06 07:33:11;;;;;;;20.13;11.20;;;;;;;;;;5108292;28;20219;-82
2021/09/06 07:35:38;;;;;;;14.77;10.75;;;;;;;;;;5088618;28;20260;-82
2021/09/06 07:38:04;;;;;;;16.63;12.25;;;;;;;;;;5116627;28;20341;-82
2021/09/06 07:40:30;;;;;;;10.63;9.53;;;;;;;;;;5119443;28;20793;-82
2021/09/06 07:42:55;;;;;;;12.30;10.20;;;;;;;;;;5087964;28;20434;-82
2021/09/06 07:45:21;;;;;;;13.67;10.40;;;;;;;;;;5088405;28;20402;-81
2021/09/06 07:47:47;;;;;;;12.60;9.40;;;;;;;;;;5097582;28;20432;-82
2021/09/06 07:50:14;;;;;;;11.82;9.68;;;;;;;;;;5116885;28;20436;-82
2021/09/06 07:52:41;;;;;;;14.32;12.88;;;;;;;;;;5117893;28;20223;-82
2021/09/06 07:55:08;;;;;;;13.55;10.75;;;;;;;;;;5088627;28;20181;-82
2021/09/06 07:57:34;;;;;;;11.38;10.20;;;;;;;;;;5120416;28;20178;-82
2021/09/06 08:00:00;;;;;;;10.75;9.65;;;;;;;;;;5099523;28;20173;-82
2021/09/06 08:02:26;;;;;;;12.60;11.30;;;;;;;;;;5105680;28;20191;-82
2021/09/06 08:04:52;;;;;;;10.17;9.17;;;;;;;;;;5110613;28;20181;-82
2021/09/06 08:07:19;;;;;;;10.33;9.23;;;;;;;;;;5114397;28;20456;-82
2021/09/06 08:09:45;;;;;;;10.20;9.30;;;;;;;;;;5105037;28;20422;-81
2021/09/06 08:12:11;;;;;;;9.97;9.00;;;;;;;;;;5104614;28;20456;-82
2021/09/06 08:14:38;;;;;;;9.97;8.87;;;;;;;;;;5114582;28;20437;-82
2021/09/06 08:17:04;;;;;;;12.37;9.17;;;;;;;;;;5114676;28;20437;-82
2021/09/06 08:19:30;;;;;;;10.10;9.10;;;;;;;;;;5104788;28;20429;-82
2021/09/06 08:21:56;;;;;;;10.07;9.00;;;;;;;;;;5091064;28;20180;-82
2021/09/06 08:24:23;;;;;;;12.23;9.60;;;;;;;;;;5092727;28;20388;-81
2021/09/06 08:26:49;;;;;;;18.50;11.60;;;;;;;;;;5103788;28;20383;-82
2021/09/06 08:29:16;;;;;;;15.60;11.60;;;;;;;;;;5116184;28;20400;-82
2021/09/06 08:31:42;;;;;;;12.50;10.40;;;;;;;;;;5094104;28;20479;-82
2021/09/06 08:34:08;;;;;;;12.33;10.20;;;;;;;;;;5105929;28;20399;-82
2021/09/06 08:36:34;;;;;;;10.33;9.27;;;;;;;;;;5089231;28;20426;-82
2021/09/06 08:39:00;;;;;;;13.50;10.43;;;;;;;;;;5104613;28;20419;-82
2021/09/06 08:41:26;;;;;;;11.90;9.73;;;;;;;;;;5098314;28;20872;-82
2021/09/06 08:43:52;;;;;;;12.27;10.20;;;;;;;;;;5108786;28;20419;-81
2021/09/06 08:46:22;;;;;;;9.50;8.60;;;;;;;;;;5095361;28;20423;-82
2021/09/06 08:48:48;;;;;;;9.90;8.83;;;;;;;;;;5090927;28;20787;-82
2021/09/06 08:51:14;;;;;;;9.67;8.77;;;;;;;;;;5104582;28;20771;-82
2021/09/06 08:53:40;;;;;;;9.60;8.60;;;;;;;;;;5118101;28;20439;-82
2021/09/06 08:56:06;;;;;;;11.93;8.03;;;;;;;;;;5099283;28;20456;-82
2021/09/06 08:58:32;;;;;;;8.87;7.63;;;;;;;;;;5111733;28;20407;-82
2021/09/06 09:00:58;;;;;;;11.90;8.30;;;;;;;;;;5108850;28;20446;-82
2021/09/06 09:03:24;;;;;;;16.23;10.40;;;;;;;;;;5109835;28;20413;-82
2021/09/06 09:06:03;;;;;;;12.10;8.93;;;;;;;;;;5101615;28;20427;-82
2021/09/06 09:08:29;;;;;;;9.60;8.60;;;;;;;;;;5092313;28;20461;-82
2021/09/06 09:11:00;;;;;;;9.40;8.40;;;;;;;;;;5093447;28;20446;-82
2021/09/06 09:13:28;;;;;;;11.00;8.90;;;;;;;;;;5111523;28;20423;-82
2021/09/06 09:15:54;;;;;;;9.50;8.63;;;;;;;;;;5090882;28;20424;-82
2021/09/06 09:18:34;;;;;;;10.83;8.73;;;;;;;;;;5087632;28;20418;-81
2021/09/06 09:21:02;;;;;;;9.53;8.63;;;;;;;;;;5106687;28;20422;-82
2021/09/06 09:23:34;;;;;;;9.90;9.00;;;;;;;;;;5095764;28;20442;-82
2021/09/06 09:26:01;;;;;;;9.40;7.57;;;;;;;;;;5091277;28;20440;-82
2021/09/06 09:28:28;;;;;;;10.23;8.80;;;;;;;;;;5108636;28;20477;-82
2021/09/06 09:31:04;;;;;;;13.00;9.60;;;;;;;;;;5104758;28;20533;-82
2021/09/06 09:33:30;;;;;;;10.80;9.67;;;;;;;;;;5089925;28;20421;-81
2021/09/06 09:35:58;;;;;;;10.80;9.70;;;;;;;;;;5111144;28;20502;-82
2021/09/06 09:38:33;;;;;;;9.10;7.97;;;;;;;;;;5091680;28;20431;-82
2021/09/06 09:40:59;;;;;;;9.10;7.57;;;;;;;;;;5093190;28;20435;-82
2021/09/06 09:43:33;;;;;;;10.27;7.13;;;;;;;;;;5090879;28;20458;-82
2021/09/06 09:46:05;;;;;;;7.70;6.90;;;;;;;;;;5122327;28;20930;-82
2021/09/06 09:48:31;;;;;;;8.50;6.97;;;;;;;;;;5089616;28;20415;-82
2021/09/06 09:50:57;;;;;;;8.40;7.50;;;;;;;;;;5101838;28;20420;-82
2021/09/06 09:53:24;;;;;;;8.17;6.93;;;;;;;;;;5119235;28;20469;-82
2021/09/06 09:55:50;;;;;;;7.67;6.83;;;;;;;;;;5118648;28;20458;-81
2021/09/06 09:58:16;;;;;;;7.90;7.00;;;;;;;;;;5109575;28;20399;-82
2021/09/06 10:00:43;;;;;;;11.80;6.73;;;;;;;;;;5089079;28;20398;-81
2021/09/06 10:03:09;;;;;;;8.03;7.17;;;;;;;;;;5121695;28;20414;-82
2021/09/06 10:05:36;;;;;;;8.07;7.00;;;;;;;;;;5093511;28;20423;-82
2021/09/06 10:08:07;;;;;;;7.93;6.87;;;;;;;;;;5110492;28;20437;-82
2021/09/06 10:10:37;;;;;;;7.90;6.97;;;;;;;;;;5090515;28;20954;-82
2021/09/06 10:13:05;;;;;;;7.10;6.40;;;;;;;;;;5090534;28;20509;-82
2021/09/06 10:15:32;;;;;;;7.30;6.60;;;;;;;;;;5107760;28;20913;-82
2021/09/06 10:18:00;;;;;;;7.03;6.33;;;;;;;;;;5120811;28;20423;-82
2021/09/06 10:20:27;;;;;;;8.60;6.13;;;;;;;;;;5112232;28;20501;-84
2021/09/06 10:23:07;;;;;;;6.57;5.97;;;;;;;;;;5094715;28;20433;-83
2021/09/06 10:25:37;;;;;;;7.63;5.90;;;;;;;;;;5091425;28;20434;-82
2021/09/06 10:28:04;;;;;;;6.77;6.10;;;;;;;;;;5101462;28;20432;-82
2021/09/06 10:30:34;;;;;;;6.43;5.50;;;;;;;;;;5102757;28;20424;-82
2021/09/06 10:33:00;;;;;;;7.40;6.70;;;;;;;;;;5108876;28;20486;-82
2021/09/06 10:35:29;;;;;;;11.60;6.40;;;;;;;;;;5089686;28;20432;-83
2021/09/06 10:38:14;;;;;;;8.90;6.07;;;;;;;;;;5088643;28;20432;-82
2021/09/06 10:40:41;;;;;;;9.80;6.80;;;;;;;;;;5091171;28;20516;-82
2021/09/06 10:43:12;;;;;;;7.53;6.53;;;;;;;;;;5104623;28;20520;-83
2021/09/06 10:45:38;;;;;;;7.80;7.10;;;;;;;;;;5088006;28;20432;-83
2021/09/06 10:48:05;;;;;;;7.30;6.47;;;;;;;;;;5109130;28;20450;-82
2021/09/06 10:50:31;;;;;;;6.73;6.03;;;;;;;;;;5109617;28;20442;-82
2021/09/06 10:52:57;;;;;;;7.07;6.37;;;;;;;;;;5093969;28;20464;-83
2021/09/06 10:55:23;;;;;;;6.33;5.73;;;;;;;;;;5109244;28;20455;-82
2021/09/06 10:57:49;;;;;;;8.83;6.10;;;;;;;;;;5087886;28;20464;-82
2021/09/06 11:00:22;;;;;;;6.60;6.00;;;;;;;;;;5086048;28;20421;-82
2021/09/06 11:02:50;;;;;;;6.47;5.87;;;;;;;;;;5093739;28;20932;-81
2021/09/06 11:05:25;;;;;;;8.07;6.00;;;;;;;;;;5097118;28;20919;-82
2021/09/06 11:08:03;;;;;;;8.40;6.67;;;;;;;;;;5098207;28;20442;-81
2021/09/06 11:10:30;;;;;;;9.33;6.03;;;;;;;;;;5098828;28;20778;-84
2021/09/06 11:12:57;;;;;;;5.67;5.23;;;;;;;;;;5102562;28;21006;-81
2021/09/06 11:15:24;;;;;;;6.47;5.87;;;;;;;;;;5123313;28;20438;-82
2021/09/06 11:18:16;;;;;;;7.73;7.10;;;;;;;;;;5092078;28;20413;-83
2021/09/06 11:20:44;;;;;;;8.50;5.80;;;;;;;;;;5087248;28;20440;-83
2021/09/06 11:23:10;;;;;;;6.07;5.50;;;;;;;;;;5109241;28;20438;-82
2021/09/06 11:25:38;;;;;;;9.30;6.37;;;;;;;;;;5091197;28;21034;-82
2021/09/06 11:28:08;;;;;;;6.00;5.50;;;;;;;;;;5120691;28;20441;-82
2021/09/06 11:30:35;;;;;;;5.50;5.00;;;;;;;;;;5087940;28;20413;-82
2021/09/06 11:33:05;;;;;;;5.83;5.33;;;;;;;;;;5108546;28;20457;-82
2021/09/06 11:35:31;;;;;;;6.20;5.57;;;;;;;;;;5088509;28;20449;-82
2021/09/06 11:37:57;;;;;;;6.17;5.57;;;;;;;;;;5090849;28;20516;-82
2021/09/06 11:40:24;;;;;;;6.00;5.50;;;;;;;;;;5088250;28;20463;-82
2021/09/06 11:42:50;;;;;;;6.03;5.30;;;;;;;;;;5102548;28;20433;-82
2021/09/06 11:45:18;;;;;;;5.60;5.10;;;;;;;;;;5090073;28;20511;-83
2021/09/06 11:47:44;;;;;;;7.00;5.90;;;;;;;;;;5089134;28;20430;-82
2021/09/06 11:50:11;;;;;;;6.33;5.30;;;;;;;;;;5087607;28;20434;-82
2021/09/06 11:52:38;;;;;;;7.20;6.20;;;;;;;;;;5090727;28;20755;-82
2021/09/06 11:55:10;;;;;;;6.20;5.53;;;;;;;;;;5105161;28;20467;-83
2021/09/06 11:57:36;;;;;;;6.17;5.57;;;;;;;;;;5087636;28;20440;-82
2021/09/06 12:00:03;;;;;;;6.10;5.30;;;;;;;;;;5100973;28;20915;-83
2021/09/06 12:02:29;;;;;;;6.40;5.70;;;;;;;;;;5111278;28;20447;-82
2021/09/06 12:05:02;;;;;;;5.63;5.03;;;;;;;;;;5093157;28;20462;-82
2021/09/06 12:07:28;;;;;;;5.70;5.20;;;;;;;;;;5093269;28;20427;-82
2021/09/06 12:09:54;;;;;;;6.43;5.83;;;;;;;;;;5087878;28;20433;-82
2021/09/06 12:12:22;;;;;;;6.07;5.57;;;;;;;;;;5088860;28;20459;-82
2021/09/06 12:14:49;;;;;;;7.63;5.67;;;;;;;;;;5100156;28;20414;-81
2021/09/06 12:17:15;;;;;;;5.50;5.10;;;;;;;;;;5091054;28;20434;-82
2021/09/06 12:19:45;;;;;;;6.13;5.43;;;;;;;;;;5107654;28;20951;-83
2021/09/06 12:22:14;;;;;;;5.23;4.73;;;;;;;;;;5120087;28;20428;-81
2021/09/06 12:24:41;;;;;;;5.80;5.30;;;;;;;;;;5104127;28;20435;-83
2021/09/06 12:27:14;;;;;;;6.90;6.20;;;;;;;;;;5090841;28;20437;-82
2021/09/06 12:29:41;;;;;;;5.67;5.07;;;;;;;;;;5088440;28;20439;-81
2021/09/06 12:32:07;;;;;;;5.20;4.70;;;;;;;;;;5090674;28;20522;-81
2021/09/06 12:34:35;;;;;;;5.40;5.00;;;;;;;;;;5093081;28;20440;-82
2021/09/06 12:37:02;;;;;;;7.00;5.87;;;;;;;;;;5105251;28;20453;-81
2021/09/06 12:39:29;;;;;;;6.37;5.87;;;;;;;;;;5087189;28;20421;-82
2021/09/06 12:41:55;;;;;;;12.43;5.57;;;;;;;;;;5121329;28;20423;-83
2021/09/06 12:44:21;;;;;;;5.40;5.00;;;;;;;;;;5112087;28;20441;-82
2021/09/06 12:46:47;;;;;;;5.97;5.57;;;;;;;;;;5088071;28;20440;-82
2021/09/06 12:49:13;;;;;;;5.20;4.80;;;;;;;;;;5089407;28;20486;-82
2021/09/06 12:51:39;;;;;;;6.83;5.50;;;;;;;;;;5085786;28;20563;-82
2021/09/06 12:54:06;;;;;;;5.83;5.43;;;;;;;;;;5108100;28;20414;-83
2021/09/06 12:56:35;;;;;;;6.50;6.10;;;;;;;;;;5090473;28;20452;-82
2021/09/06 12:59:01;;;;;;;5.67;5.17;;;;;;;;;;5111727;28;20441;-82
2021/09/06 13:01:27;;;;;;;5.63;5.30;;;;;;;;;;5092384;28;20444;-84
2021/09/06 13:03:53;;;;;;;6.00;5.50;;;;;;;;;;5105385;28;20797;-83
2021/09/06 13:06:19;;;;;;;5.30;4.90;;;;;;;;;;5126717;28;20443;-82
2021/09/06 13:08:45;;;;;;;5.37;4.97;;;;;;;;;;5124255;28;20880;-83
2021/09/06 13:11:11;;;;;;;6.53;5.93;;;;;;;;;;5115453;28;20429;-83
2021/09/06 13:13:37;;;;;;;5.97;5.67;;;;;;;;;;5098362;28;20460;-82
2021/09/06 13:16:03;;;;;;;7.10;6.60;;;;;;;;;;5122427;28;20432;-82
2021/09/06 13:18:29;;;;;;;6.17;5.77;;;;;;;;;;5088418;28;20414;-82
2021/09/06 13:20:57;;;;;;;6.67;6.17;;;;;;;;;;5103091;28;20416;-83
2021/09/06 13:23:23;;;;;;;5.83;5.33;;;;;;;;;;5116423;28;20513;-84
2021/09/06 13:25:49;;;;;;;5.20;4.90;;;;;;;;;;5111308;28;20437;-83
2021/09/06 13:28:15;;;;;;;5.60;5.20;;;;;;;;;;5110445;28;20439;-83
2021/09/06 13:30:41;;;;;;;5.10;4.70;;;;;;;;;;5106966;28;20842;-82
2021/09/06 13:33:08;;;;;;;5.27;4.87;;;;;;;;;;5106989;28;20479;-82
2021/09/06 13:35:34;;;;;;;4.77;4.47;;;;;;;;;;5098566;28;21001;-82
2021/09/06 13:38:00;;;;;;;5.30;4.90;;;;;;;;;;5099356;28;20437;-82
2021/09/06 13:40:26;;;;;;;5.53;4.90;;;;;;;;;;5095489;28;20452;-83
2021/09/06 13:42:52;;;;;;;4.73;4.43;;;;;;;;;;5088275;28;20428;-82
2021/09/06 13:45:18;;;;;;;5.57;5.17;;;;;;;;;;5122406;28;20515;-82
2021/09/06 13:47:44;;;;;;;4.53;4.23;;;;;;;;;;5119822;28;20448;-83
2021/09/06 13:50:10;;;;;;;4.43;4.03;;;;;;;;;;5094107;28;20494;-82
2021/09/06 13:52:36;;;;;;;4.87;4.57;;;;;;;;;;5110802;28;20505;-82
2021/09/06 13:55:03;;;;;;;5.70;5.20;;;;;;;;;;5107422;28;20922;-82
2021/09/06 13:57:29;;;;;;;5.27;4.80;;;;;;;;;;5089915;28;20913;-82
2021/09/06 13:59:55;;;;;;;5.67;5.20;;;;;;;;;;5101255;28;20413;-82
2021/09/06 14:02:21;;;;;;;4.77;4.47;;;;;;;;;;5116987;28;20448;-83
2021/09/06 14:04:47;;;;;;;5.70;5.30;;;;;;;;;;5118167;28;20435;-81
2021/09/06 14:07:13;;;;;;;4.50;4.20;;;;;;;;;;5109571;28;20432;-83
2021/09/06 14:09:39;;;;;;;6.70;5.20;;;;;;;;;;5088832;28;20423;-82
2021/09/06 14:12:11;;;;;;;4.50;4.10;;;;;;;;;;5101536;28;20456;-83
2021/09/06 14:14:37;;;;;;;4.53;4.23;;;;;;;;;;5093451;28;20433;-82
2021/09/06 14:17:03;;;;;;;5.03;4.63;;;;;;;;;;5099807;28;20445;-84
2021/09/06 14:19:29;;;;;;;5.00;4.60;;;;;;;;;;5121255;28;20491;-82
2021/09/06 14:21:55;;;;;;;4.80;4.40;;;;;;;;;;5090018;28;21002;-82
2021/09/06 14:24:21;;;;;;;6.63;5.07;;;;;;;;;;5121269;28;20416;-81
2021/09/06 14:26:47;;;;;;;5.10;4.70;;;;;;;;;;5119441;28;20413;-83
2021/09/06 14:29:13;;;;;;;5.10;4.70;;;;;;;;;;5115225;28;20422;-82
2021/09/06 14:31:39;;;;;;;4.40;4.00;;;;;;;;;;5092044;28;20550;-82
2021/09/06 14:34:05;;;;;;;4.67;4.23;;;;;;;;;;5104216;28;20441;-81